Time;durP1;ratioP1;P1;durP2;ratioP2;P2;SDS_P1;SDS_P2;PMS_P1;PMS_P2;Temp;Humidity;BMP_temperature;BMP_pressure;BME280_temperature;BME280_humidity;BME280_pressure;Samples;Min_cycle;Max_cycle;Signal;HPM_P1;HPM_P2
2023/06/22 00:02:02;;;;;;;0.80;0.70;;;;;;;;;;5065281;28;20480;-80
2023/06/22 00:04:29;;;;;;;1.10;1.00;;;;;;;;;;5058497;28;20432;-81
2023/06/22 00:06:55;;;;;;;0.90;0.90;;;;;;;;;;5066641;28;20817;-80
2023/06/22 00:09:22;;;;;;;1.30;1.20;;;;;;;;;;5060408;28;20497;-81
2023/06/22 00:11:48;;;;;;;1.10;1.00;;;;;;;;;;5069998;28;20427;-80
2023/06/22 00:14:15;;;;;;;0.90;0.80;;;;;;;;;;5067738;28;20449;-80
2023/06/22 00:16:43;;;;;;;0.70;0.70;;;;;;;;;;5048628;28;20561;-80
2023/06/22 00:19:11;;;;;;;1.20;1.10;;;;;;;;;;5063028;28;20446;-81
2023/06/22 00:21:38;;;;;;;1.37;1.27;;;;;;;;;;5067234;28;20436;-79
2023/06/22 00:24:06;;;;;;;1.77;1.43;;;;;;;;;;5066203;28;20526;-80
2023/06/22 00:26:32;;;;;;;0.80;0.80;;;;;;;;;;5068604;28;20414;-82
2023/06/22 00:28:59;;;;;;;1.10;1.00;;;;;;;;;;5059738;28;20407;-80
2023/06/22 00:31:29;;;;;;;0.80;0.80;;;;;;;;;;5068107;28;20457;-80
2023/06/22 00:33:57;;;;;;;1.20;1.13;;;;;;;;;;5070368;28;20434;-81
2023/06/22 00:36:24;;;;;;;0.80;0.70;;;;;;;;;;5069685;28;20441;-81
2023/06/22 00:38:51;;;;;;;1.57;1.13;;;;;;;;;;5062057;28;20454;-81
2023/06/22 00:41:17;;;;;;;0.90;0.90;;;;;;;;;;5062691;28;20419;-81
2023/06/22 00:43:44;;;;;;;0.80;0.70;;;;;;;;;;5072671;28;20414;-79
2023/06/22 00:46:11;;;;;;;0.80;0.77;;;;;;;;;;5069605;28;20425;-82
2023/06/22 00:48:39;;;;;;;2.50;1.67;;;;;;;;;;5067311;28;20447;-81
2023/06/22 00:51:08;;;;;;;0.70;0.60;;;;;;;;;;5067578;28;20520;-81
2023/06/22 00:53:34;;;;;;;1.07;0.97;;;;;;;;;;5065226;28;20495;-80
2023/06/22 00:56:03;;;;;;;0.80;0.80;;;;;;;;;;5068355;28;20450;-80
2023/06/22 00:58:29;;;;;;;0.80;0.70;;;;;;;;;;5064428;28;20518;-81
2023/06/22 01:00:56;;;;;;;0.90;0.83;;;;;;;;;;5065002;28;20928;-81
2023/06/22 01:03:26;;;;;;;0.80;0.80;;;;;;;;;;5066120;28;20442;-80
2023/06/22 01:05:55;;;;;;;0.77;0.70;;;;;;;;;;5064691;28;20923;-81
2023/06/22 01:08:28;;;;;;;0.93;0.90;;;;;;;;;;5052960;28;20823;-81
2023/06/22 01:10:57;;;;;;;1.00;0.90;;;;;;;;;;5061231;28;20796;-81
2023/06/22 01:13:27;;;;;;;0.80;0.70;;;;;;;;;;5046245;28;20451;-81
2023/06/22 01:15:56;;;;;;;2.00;1.90;;;;;;;;;;5077099;28;20434;-80
2023/06/22 01:18:26;;;;;;;1.23;1.13;;;;;;;;;;5063225;28;20511;-80
2023/06/22 01:20:55;;;;;;;1.13;1.03;;;;;;;;;;5066588;28;20471;-81
2023/06/22 01:23:28;;;;;;;1.33;1.23;;;;;;;;;;5060997;28;20483;-81
2023/06/22 01:25:59;;;;;;;0.80;0.80;;;;;;;;;;5059358;28;20440;-80
2023/06/22 01:28:47;;;;;;;1.13;1.03;;;;;;;;;;5053043;28;20514;-80
2023/06/22 01:31:16;;;;;;;1.20;1.10;;;;;;;;;;5059235;28;20450;-81
2023/06/22 01:33:46;;;;;;;0.83;0.83;;;;;;;;;;5050473;28;20455;-79
2023/06/22 01:36:14;;;;;;;0.80;0.70;;;;;;;;;;5060360;28;20451;-82
2023/06/22 01:38:41;;;;;;;0.70;0.70;;;;;;;;;;5067621;28;20960;-82
2023/06/22 01:41:08;;;;;;;0.80;0.80;;;;;;;;;;5064252;28;20497;-81
2023/06/22 01:43:35;;;;;;;0.80;0.80;;;;;;;;;;5066576;28;20448;-80
2023/06/22 01:46:04;;;;;;;0.80;0.80;;;;;;;;;;5063399;28;20435;-81
2023/06/22 01:48:30;;;;;;;0.80;0.70;;;;;;;;;;5046598;28;20471;-81
2023/06/22 01:50:57;;;;;;;0.80;0.70;;;;;;;;;;5054084;28;20541;-81
2023/06/22 01:53:24;;;;;;;0.80;0.80;;;;;;;;;;5052965;28;20491;-80
2023/06/22 01:55:51;;;;;;;0.77;0.70;;;;;;;;;;5041889;28;20476;-81
2023/06/22 01:58:26;;;;;;;1.00;0.90;;;;;;;;;;5067366;28;20490;-80
2023/06/22 02:00:55;;;;;;;0.80;0.70;;;;;;;;;;5060487;28;20556;-80
2023/06/22 02:03:26;;;;;;;0.80;0.60;;;;;;;;;;5046183;28;20444;-79
2023/06/22 02:05:56;;;;;;;0.80;0.80;;;;;;;;;;5050381;28;20935;-78
2023/06/22 02:08:24;;;;;;;0.80;0.70;;;;;;;;;;5060792;28;20513;-81
2023/06/22 02:10:52;;;;;;;0.87;0.87;;;;;;;;;;5061847;28;20537;-81
2023/06/22 02:13:19;;;;;;;0.80;0.77;;;;;;;;;;5067106;28;20489;-81
2023/06/22 02:15:47;;;;;;;0.80;0.80;;;;;;;;;;5050097;28;20482;-81
2023/06/22 02:18:14;;;;;;;0.80;0.70;;;;;;;;;;5069317;28;20439;-79
2023/06/22 02:20:41;;;;;;;0.80;0.80;;;;;;;;;;5063863;28;20574;-81
2023/06/22 02:23:08;;;;;;;0.77;0.70;;;;;;;;;;5068668;28;20482;-81
2023/06/22 02:25:35;;;;;;;0.80;0.77;;;;;;;;;;5063443;28;20590;-80
2023/06/22 02:28:02;;;;;;;0.80;0.80;;;;;;;;;;5066289;28;20409;-80
2023/06/22 02:30:29;;;;;;;0.80;0.77;;;;;;;;;;5046175;28;20527;-81
2023/06/22 02:32:59;;;;;;;0.80;0.80;;;;;;;;;;5061515;28;20444;-81
2023/06/22 02:35:26;;;;;;;0.90;0.90;;;;;;;;;;5058729;28;20904;-81
2023/06/22 02:37:54;;;;;;;1.20;1.00;;;;;;;;;;5061240;28;20533;-81
2023/06/22 02:40:20;;;;;;;0.80;0.80;;;;;;;;;;5067282;28;20468;-80
2023/06/22 02:42:48;;;;;;;0.70;0.70;;;;;;;;;;5045201;28;20547;-80
2023/06/22 02:45:15;;;;;;;0.80;0.70;;;;;;;;;;5064793;28;20419;-81
2023/06/22 02:47:42;;;;;;;0.80;0.70;;;;;;;;;;5066759;28;20482;-81
2023/06/22 02:50:09;;;;;;;0.90;0.90;;;;;;;;;;5063438;28;20440;-82
2023/06/22 02:52:36;;;;;;;0.80;0.70;;;;;;;;;;5051374;28;20459;-80
2023/06/22 02:55:05;;;;;;;1.00;0.90;;;;;;;;;;5065642;28;20974;-80
2023/06/22 02:57:31;;;;;;;0.77;0.70;;;;;;;;;;5063657;28;20928;-79
2023/06/22 02:59:59;;;;;;;0.80;0.80;;;;;;;;;;5063350;28;20463;-81
2023/06/22 03:02:27;;;;;;;0.93;0.93;;;;;;;;;;5046966;28;20452;-81
2023/06/22 03:04:54;;;;;;;1.00;0.90;;;;;;;;;;5070169;28;20458;-79
2023/06/22 03:07:21;;;;;;;1.07;0.97;;;;;;;;;;5058485;28;20536;-81
2023/06/22 03:09:49;;;;;;;0.73;0.60;;;;;;;;;;5059649;28;21022;-80
2023/06/22 03:12:18;;;;;;;0.80;0.70;;;;;;;;;;5065512;28;20439;-80
2023/06/22 03:14:50;;;;;;;0.80;0.73;;;;;;;;;;5052457;28;20498;-80
2023/06/22 03:17:17;;;;;;;1.33;1.23;;;;;;;;;;5064881;28;20531;-80
2023/06/22 03:19:44;;;;;;;0.70;0.63;;;;;;;;;;5067645;28;20450;-82
2023/06/22 03:22:11;;;;;;;0.90;0.90;;;;;;;;;;5064057;28;20975;-81
2023/06/22 03:24:40;;;;;;;1.10;1.00;;;;;;;;;;5064985;28;20515;-81
2023/06/22 03:27:06;;;;;;;0.90;0.90;;;;;;;;;;5065069;28;20860;-81
2023/06/22 03:29:35;;;;;;;0.90;0.90;;;;;;;;;;5061134;28;20509;-80
2023/06/22 03:32:04;;;;;;;1.00;0.90;;;;;;;;;;5047836;28;20528;-80
2023/06/22 03:34:35;;;;;;;0.80;0.70;;;;;;;;;;5061148;28;20431;-82
2023/06/22 03:37:03;;;;;;;0.80;0.73;;;;;;;;;;5050199;28;20507;-80
2023/06/22 03:39:31;;;;;;;0.70;0.60;;;;;;;;;;5046041;28;20539;-79
2023/06/22 03:41:59;;;;;;;1.00;0.90;;;;;;;;;;5061192;28;20451;-81
2023/06/22 03:44:26;;;;;;;0.73;0.70;;;;;;;;;;5037008;28;20476;-81
2023/06/22 03:46:54;;;;;;;1.00;0.90;;;;;;;;;;5067026;28;20462;-81
2023/06/22 03:49:20;;;;;;;0.83;0.80;;;;;;;;;;5071956;28;20417;-81
2023/06/22 03:51:47;;;;;;;0.80;0.80;;;;;;;;;;5070220;28;21130;-82
2023/06/22 03:54:14;;;;;;;0.90;0.80;;;;;;;;;;5049296;28;20440;-81
2023/06/22 03:56:40;;;;;;;0.70;0.70;;;;;;;;;;5067850;28;20420;-81
2023/06/22 03:59:07;;;;;;;1.00;0.87;;;;;;;;;;5070316;28;20444;-81
2023/06/22 04:01:34;;;;;;;1.57;1.00;;;;;;;;;;5066583;28;20467;-81
2023/06/22 04:04:03;;;;;;;0.80;0.70;;;;;;;;;;5065342;28;20443;-80
2023/06/22 04:06:29;;;;;;;0.80;0.70;;;;;;;;;;5070552;28;20482;-82
2023/06/22 04:08:56;;;;;;;1.30;1.20;;;;;;;;;;5050224;28;20541;-82
2023/06/22 04:11:23;;;;;;;0.80;0.80;;;;;;;;;;5063393;28;20436;-79
2023/06/22 04:13:51;;;;;;;1.30;1.20;;;;;;;;;;5054156;28;20468;-81
2023/06/22 04:16:18;;;;;;;0.70;0.70;;;;;;;;;;5068921;28;20447;-81
2023/06/22 04:18:44;;;;;;;0.70;0.70;;;;;;;;;;5062355;28;20999;-82
2023/06/22 04:21:13;;;;;;;1.43;1.33;;;;;;;;;;5067363;28;20463;-82
2023/06/22 04:23:39;;;;;;;1.30;1.20;;;;;;;;;;5068112;28;20475;-81
2023/06/22 04:26:06;;;;;;;0.70;0.60;;;;;;;;;;5070081;28;20508;-82
2023/06/22 04:28:35;;;;;;;0.80;0.80;;;;;;;;;;5066970;28;20532;-81
2023/06/22 04:31:02;;;;;;;0.80;0.80;;;;;;;;;;5067679;28;20820;-81
2023/06/22 04:33:29;;;;;;;1.30;1.20;;;;;;;;;;5065900;28;20928;-80
2023/06/22 04:36:00;;;;;;;1.53;1.00;;;;;;;;;;5065481;28;20467;-82
2023/06/22 04:38:28;;;;;;;1.63;1.53;;;;;;;;;;5053076;28;20588;-81
2023/06/22 04:40:55;;;;;;;0.80;0.70;;;;;;;;;;5062062;28;21026;-81
2023/06/22 04:43:21;;;;;;;1.30;1.20;;;;;;;;;;5068847;28;20531;-80
2023/06/22 04:45:52;;;;;;;0.87;0.87;;;;;;;;;;5067588;28;20462;-81
2023/06/22 04:48:19;;;;;;;1.00;0.90;;;;;;;;;;5062752;28;20787;-79
2023/06/22 04:50:46;;;;;;;0.93;0.93;;;;;;;;;;5048597;28;20466;-81
2023/06/22 04:53:14;;;;;;;0.80;0.70;;;;;;;;;;5064591;28;20463;-81
2023/06/22 04:55:46;;;;;;;0.93;0.93;;;;;;;;;;5065261;28;20436;-81
2023/06/22 04:58:13;;;;;;;0.80;0.80;;;;;;;;;;5051781;28;20855;-81
2023/06/22 05:00:40;;;;;;;0.80;0.80;;;;;;;;;;5063597;28;20474;-82
2023/06/22 05:03:10;;;;;;;1.97;1.27;;;;;;;;;;5065539;28;20510;-82
2023/06/22 05:05:44;;;;;;;0.77;0.70;;;;;;;;;;5070552;28;20452;-80
2023/06/22 05:08:10;;;;;;;1.10;1.00;;;;;;;;;;5065773;28;20553;-81
2023/06/22 05:10:37;;;;;;;5.03;1.10;;;;;;;;;;5048399;28;20654;-81
2023/06/22 05:13:14;;;;;;;0.80;0.80;;;;;;;;;;5063339;28;20427;-81
2023/06/22 05:15:41;;;;;;;0.90;0.90;;;;;;;;;;5061866;28;20894;-81
2023/06/22 05:18:08;;;;;;;0.80;0.80;;;;;;;;;;5053620;28;20446;-82
2023/06/22 05:20:36;;;;;;;0.80;0.80;;;;;;;;;;5065875;28;20859;-81
2023/06/22 05:23:02;;;;;;;0.70;0.60;;;;;;;;;;5067455;28;21296;-81
2023/06/22 05:25:30;;;;;;;1.07;0.97;;;;;;;;;;5051714;28;20433;-82
2023/06/22 05:27:56;;;;;;;0.70;0.70;;;;;;;;;;5062245;28;20458;-81
2023/06/22 05:30:24;;;;;;;0.80;0.80;;;;;;;;;;5066077;28;20441;-81
2023/06/22 05:32:52;;;;;;;0.90;0.90;;;;;;;;;;5063791;28;20507;-80
2023/06/22 05:35:19;;;;;;;1.00;0.90;;;;;;;;;;5065131;28;20504;-82
2023/06/22 05:37:46;;;;;;;0.70;0.70;;;;;;;;;;5045872;28;20465;-82
2023/06/22 05:40:13;;;;;;;0.80;0.70;;;;;;;;;;5062224;28;20414;-81
2023/06/22 05:42:40;;;;;;;0.90;0.77;;;;;;;;;;5069013;28;20951;-82
2023/06/22 05:45:09;;;;;;;0.77;0.70;;;;;;;;;;5043994;28;20437;-80
2023/06/22 05:47:37;;;;;;;1.17;1.10;;;;;;;;;;5063783;28;20538;-79
2023/06/22 05:50:08;;;;;;;1.00;1.00;;;;;;;;;;5062290;28;20443;-81
2023/06/22 05:52:37;;;;;;;0.80;0.73;;;;;;;;;;5065153;28;20503;-80
2023/06/22 05:55:04;;;;;;;0.70;0.63;;;;;;;;;;5061963;28;20810;-81
2023/06/22 05:57:32;;;;;;;1.00;1.00;;;;;;;;;;5050386;28;20883;-81
2023/06/22 05:59:58;;;;;;;0.80;0.80;;;;;;;;;;5062630;28;20439;-81
2023/06/22 06:02:25;;;;;;;1.33;1.23;;;;;;;;;;5064059;28;20955;-81
2023/06/22 06:04:54;;;;;;;0.90;0.80;;;;;;;;;;5066141;28;20414;-81
2023/06/22 06:07:21;;;;;;;2.73;1.57;;;;;;;;;;5050158;28;20516;-80
2023/06/22 06:09:48;;;;;;;1.03;1.00;;;;;;;;;;5059676;28;20793;-80
2023/06/22 06:12:15;;;;;;;0.80;0.80;;;;;;;;;;5066631;28;20439;-78
2023/06/22 06:14:42;;;;;;;1.23;1.10;;;;;;;;;;5068529;28;20918;-81
2023/06/22 06:17:09;;;;;;;1.57;1.47;;;;;;;;;;5058822;28;20417;-80
2023/06/22 06:19:36;;;;;;;1.30;1.20;;;;;;;;;;5052358;28;20418;-80
2023/06/22 06:22:04;;;;;;;0.80;0.80;;;;;;;;;;5064149;28;20819;-79
2023/06/22 06:24:30;;;;;;;0.80;0.80;;;;;;;;;;5050378;28;20452;-79
2023/06/22 06:26:58;;;;;;;1.27;1.20;;;;;;;;;;5066123;28;20427;-78
2023/06/22 06:29:24;;;;;;;0.70;0.67;;;;;;;;;;5047892;28;20433;-79
2023/06/22 06:31:51;;;;;;;1.10;1.00;;;;;;;;;;5065328;28;20398;-79
2023/06/22 06:34:20;;;;;;;0.80;0.70;;;;;;;;;;5062289;28;20456;-81
2023/06/22 06:36:46;;;;;;;1.40;1.30;;;;;;;;;;5065342;28;20433;-78
2023/06/22 06:39:15;;;;;;;0.97;0.97;;;;;;;;;;5067973;28;20439;-78
2023/06/22 06:41:42;;;;;;;0.80;0.70;;;;;;;;;;5061019;28;20531;-78
2023/06/22 06:44:14;;;;;;;3.47;2.40;;;;;;;;;;5063940;28;21021;-78
2023/06/22 06:46:41;;;;;;;0.70;0.67;;;;;;;;;;5060184;28;20432;-77
2023/06/22 06:49:09;;;;;;;1.50;1.10;;;;;;;;;;5060517;28;20897;-78
2023/06/22 06:51:35;;;;;;;3.30;3.00;;;;;;;;;;5060014;28;20469;-79
2023/06/22 06:54:03;;;;;;;1.07;0.97;;;;;;;;;;5048297;28;20426;-79
2023/06/22 06:56:32;;;;;;;1.20;1.10;;;;;;;;;;5055778;28;20429;-80
2023/06/22 06:58:59;;;;;;;1.27;1.17;;;;;;;;;;5066038;28;20958;-79
2023/06/22 07:01:26;;;;;;;1.00;0.90;;;;;;;;;;5052251;28;20464;-79
2023/06/22 07:03:53;;;;;;;0.70;0.70;;;;;;;;;;5056492;28;20865;-78
2023/06/22 07:06:20;;;;;;;4.20;2.60;;;;;;;;;;5063426;28;20454;-80
2023/06/22 07:08:47;;;;;;;1.13;1.07;;;;;;;;;;5049773;28;20475;-78
2023/06/22 07:11:14;;;;;;;0.83;0.80;;;;;;;;;;5055077;28;20439;-79
2023/06/22 07:13:41;;;;;;;0.80;0.80;;;;;;;;;;5062903;28;20432;-79
2023/06/22 07:16:09;;;;;;;0.77;0.70;;;;;;;;;;5066202;28;20436;-79
2023/06/22 07:18:36;;;;;;;1.67;1.57;;;;;;;;;;5063319;28;20951;-79
2023/06/22 07:21:06;;;;;;;0.80;0.80;;;;;;;;;;5054959;28;20466;-79
2023/06/22 07:23:33;;;;;;;1.20;1.10;;;;;;;;;;5061318;28;20566;-78
2023/06/22 07:26:03;;;;;;;1.33;1.20;;;;;;;;;;5050068;28;20476;-79
2023/06/22 07:28:36;;;;;;;0.77;0.73;;;;;;;;;;5058001;28;20522;-79
2023/06/22 07:31:04;;;;;;;0.80;0.80;;;;;;;;;;5061968;28;20787;-78
2023/06/22 07:33:31;;;;;;;1.60;1.50;;;;;;;;;;5066725;28;20447;-79
2023/06/22 07:35:58;;;;;;;0.90;0.90;;;;;;;;;;5063180;28;20462;-79
2023/06/22 07:38:24;;;;;;;1.17;0.93;;;;;;;;;;5064292;28;20495;-79
2023/06/22 07:40:53;;;;;;;1.67;1.57;;;;;;;;;;5061445;28;20479;-79
2023/06/22 07:43:19;;;;;;;0.83;0.80;;;;;;;;;;5059202;28;20908;-79
2023/06/22 07:45:52;;;;;;;2.33;2.13;;;;;;;;;;5064536;28;20482;-79
2023/06/22 07:48:21;;;;;;;1.73;1.63;;;;;;;;;;5064336;28;20443;-80
2023/06/22 07:50:48;;;;;;;1.03;0.97;;;;;;;;;;5059756;28;20451;-79
2023/06/22 07:53:16;;;;;;;0.80;0.73;;;;;;;;;;5059623;28;20471;-79
2023/06/22 07:55:43;;;;;;;1.53;1.43;;;;;;;;;;5059369;28;20440;-79
2023/06/22 07:58:09;;;;;;;0.90;0.90;;;;;;;;;;5065864;28;20448;-79
2023/06/22 08:00:36;;;;;;;1.07;0.97;;;;;;;;;;5065206;28;20445;-80
2023/06/22 08:03:04;;;;;;;0.90;0.90;;;;;;;;;;5063423;28;20477;-79
2023/06/22 08:05:33;;;;;;;1.43;1.33;;;;;;;;;;5055202;28;20450;-79
2023/06/22 08:07:59;;;;;;;1.30;1.20;;;;;;;;;;5059750;28;20458;-79
2023/06/22 08:10:26;;;;;;;3.47;3.00;;;;;;;;;;5057710;28;20631;-80
2023/06/22 08:12:53;;;;;;;1.33;1.23;;;;;;;;;;5057198;28;20432;-79
2023/06/22 08:15:20;;;;;;;1.43;1.33;;;;;;;;;;5057505;28;20527;-79
2023/06/22 08:17:46;;;;;;;0.93;0.87;;;;;;;;;;5060595;28;21560;-80
2023/06/22 08:20:14;;;;;;;1.37;1.27;;;;;;;;;;5058126;28;20774;-78
2023/06/22 08:22:42;;;;;;;1.70;1.60;;;;;;;;;;5066183;28;20482;-78
2023/06/22 08:25:09;;;;;;;0.80;0.70;;;;;;;;;;5056750;28;20450;-78
2023/06/22 08:27:36;;;;;;;0.87;0.87;;;;;;;;;;5060566;28;20457;-77
2023/06/22 08:30:03;;;;;;;1.73;1.20;;;;;;;;;;5060868;28;20444;-77
2023/06/22 08:32:32;;;;;;;1.00;1.00;;;;;;;;;;5067996;28;20428;-80
2023/06/22 08:34:59;;;;;;;1.10;1.00;;;;;;;;;;5063570;28;20432;-80
2023/06/22 08:37:31;;;;;;;0.80;0.80;;;;;;;;;;5061799;28;20784;-79
2023/06/22 08:40:00;;;;;;;1.00;0.90;;;;;;;;;;5068332;28;20521;-80
2023/06/22 08:42:29;;;;;;;0.80;0.80;;;;;;;;;;5054097;28;20558;-80
2023/06/22 08:44:55;;;;;;;0.70;0.60;;;;;;;;;;5060296;28;20464;-75
2023/06/22 08:47:22;;;;;;;0.80;0.70;;;;;;;;;;5065659;28;20570;-82
2023/06/22 08:49:49;;;;;;;0.73;0.60;;;;;;;;;;5062134;28;20440;-82
2023/06/22 08:52:17;;;;;;;1.23;1.13;;;;;;;;;;5065719;28;20510;-81
2023/06/22 08:54:43;;;;;;;1.10;1.00;;;;;;;;;;5053538;28;20484;-80
2023/06/22 08:57:11;;;;;;;1.07;0.80;;;;;;;;;;5060651;28;20781;-81
2023/06/22 08:59:40;;;;;;;0.80;0.77;;;;;;;;;;5062136;28;20474;-81
2023/06/22 09:02:07;;;;;;;1.07;0.97;;;;;;;;;;5045700;28;20486;-80
2023/06/22 09:04:34;;;;;;;0.80;0.70;;;;;;;;;;5053640;28;20467;-80
2023/06/22 09:07:02;;;;;;;0.90;0.80;;;;;;;;;;5058861;28;20505;-79
2023/06/22 09:09:30;;;;;;;0.80;0.70;;;;;;;;;;5066350;28;20447;-81
2023/06/22 09:11:57;;;;;;;1.10;0.80;;;;;;;;;;5067001;28;20527;-80
2023/06/22 09:14:27;;;;;;;2.00;1.83;;;;;;;;;;5057214;28;20427;-81
2023/06/22 09:16:54;;;;;;;3.23;1.70;;;;;;;;;;5057579;28;20527;-85
2023/06/22 09:19:21;;;;;;;1.10;1.00;;;;;;;;;;5062816;28;20936;-77
2023/06/22 09:21:47;;;;;;;0.80;0.70;;;;;;;;;;5061090;28;20511;-74
2023/06/22 09:24:14;;;;;;;1.33;1.23;;;;;;;;;;5062664;28;20435;-75
2023/06/22 09:26:41;;;;;;;1.10;1.00;;;;;;;;;;5062330;28;20443;-80
2023/06/22 09:29:08;;;;;;;1.33;1.17;;;;;;;;;;5068152;28;20443;-79
2023/06/22 09:31:37;;;;;;;2.23;1.20;;;;;;;;;;5054167;28;20471;-79
2023/06/22 09:34:04;;;;;;;0.83;0.80;;;;;;;;;;5058668;28;20440;-73
2023/06/22 09:36:33;;;;;;;1.30;1.07;;;;;;;;;;5059452;28;20448;-73
2023/06/22 09:39:05;;;;;;;1.27;1.17;;;;;;;;;;5064795;28;20514;-74
2023/06/22 09:41:33;;;;;;;1.20;1.10;;;;;;;;;;5066344;28;20480;-74
2023/06/22 09:44:00;;;;;;;1.80;1.70;;;;;;;;;;5058782;28;20432;-74
2023/06/22 09:46:27;;;;;;;9.33;1.30;;;;;;;;;;5067867;28;21306;-75
2023/06/22 09:48:55;;;;;;;1.53;0.90;;;;;;;;;;5063167;28;20990;-74
2023/06/22 09:51:23;;;;;;;0.70;0.53;;;;;;;;;;5063964;28;20450;-74
2023/06/22 09:53:53;;;;;;;1.37;1.27;;;;;;;;;;5061925;28;20546;-74
2023/06/22 09:56:19;;;;;;;1.07;1.00;;;;;;;;;;5063733;28;20435;-74
2023/06/22 09:58:47;;;;;;;0.93;0.87;;;;;;;;;;5064889;28;20440;-73
2023/06/22 10:01:17;;;;;;;0.70;0.60;;;;;;;;;;5061297;28;20438;-73
2023/06/22 10:03:44;;;;;;;0.83;0.83;;;;;;;;;;5052130;28;20474;-73
2023/06/22 10:06:12;;;;;;;0.90;0.90;;;;;;;;;;5060912;28;20432;-72
2023/06/22 10:08:41;;;;;;;1.07;0.97;;;;;;;;;;5054880;28;20494;-73
2023/06/22 10:11:08;;;;;;;0.70;0.60;;;;;;;;;;5062799;28;20439;-73
2023/06/22 10:13:35;;;;;;;0.77;0.70;;;;;;;;;;5059366;28;20478;-73
2023/06/22 10:16:02;;;;;;;2.20;1.70;;;;;;;;;;5065052;28;20488;-73
2023/06/22 10:18:30;;;;;;;1.10;1.00;;;;;;;;;;5060424;28;20490;-75
2023/06/22 10:20:59;;;;;;;1.13;1.03;;;;;;;;;;5059853;28;20463;-75
2023/06/22 10:23:29;;;;;;;0.70;0.60;;;;;;;;;;5058583;28;20478;-72
2023/06/22 10:25:58;;;;;;;1.10;1.00;;;;;;;;;;5058604;28;20436;-74
2023/06/22 10:28:25;;;;;;;0.70;0.60;;;;;;;;;;5061525;28;20559;-76
2023/06/22 10:30:51;;;;;;;0.80;0.80;;;;;;;;;;5063906;28;20437;-74
2023/06/22 10:33:20;;;;;;;13.00;3.43;;;;;;;;;;5057607;28;20457;-75
2023/06/22 10:35:47;;;;;;;1.97;1.83;;;;;;;;;;5061896;28;20439;-77
2023/06/22 10:38:14;;;;;;;1.23;1.13;;;;;;;;;;5062896;28;20467;-76
2023/06/22 10:40:44;;;;;;;1.00;0.93;;;;;;;;;;5061458;28;20454;-77
2023/06/22 10:43:10;;;;;;;1.17;1.10;;;;;;;;;;5048366;28;20473;-76
2023/06/22 10:45:38;;;;;;;2.60;1.77;;;;;;;;;;5050054;28;20440;-75
2023/06/22 10:48:05;;;;;;;1.47;1.37;;;;;;;;;;5060248;28;20486;-75
2023/06/22 10:50:31;;;;;;;0.80;0.80;;;;;;;;;;5063168;28;20438;-78
2023/06/22 10:52:58;;;;;;;1.53;1.43;;;;;;;;;;5067196;28;20450;-80
2023/06/22 10:55:26;;;;;;;0.80;0.80;;;;;;;;;;5059074;28;20409;-80
2023/06/22 10:58:07;;;;;;;0.73;0.67;;;;;;;;;;5065060;28;20438;-80
2023/06/22 11:00:36;;;;;;;1.83;0.90;;;;;;;;;;5065952;28;20432;-80
2023/06/22 11:03:05;;;;;;;0.80;0.77;;;;;;;;;;5063180;28;20494;-80
2023/06/22 11:05:32;;;;;;;0.73;0.70;;;;;;;;;;5065892;28;20443;-80
2023/06/22 11:07:59;;;;;;;0.80;0.80;;;;;;;;;;5059983;28;20423;-79
2023/06/22 11:10:27;;;;;;;0.80;0.80;;;;;;;;;;5063417;28;20442;-82
2023/06/22 11:12:56;;;;;;;0.80;0.80;;;;;;;;;;5059293;28;20417;-83
2023/06/22 11:15:27;;;;;;;2.50;1.23;;;;;;;;;;5059168;28;20471;-83
2023/06/22 11:17:54;;;;;;;1.73;1.63;;;;;;;;;;5049690;28;20446;-82
2023/06/22 11:20:21;;;;;;;0.80;0.80;;;;;;;;;;5059990;28;20435;-82
2023/06/22 11:22:47;;;;;;;0.70;0.60;;;;;;;;;;5063237;28;20499;-83
2023/06/22 11:25:14;;;;;;;2.37;1.77;;;;;;;;;;5060749;28;20440;-84
2023/06/22 11:27:43;;;;;;;0.80;0.77;;;;;;;;;;5064533;28;20957;-85
2023/06/22 11:30:13;;;;;;;1.00;1.00;;;;;;;;;;5061877;28;20398;-88
2023/06/22 11:32:41;;;;;;;0.90;0.90;;;;;;;;;;5066671;28;20738;-84
2023/06/22 11:35:10;;;;;;;0.80;0.80;;;;;;;;;;5062686;28;20414;-84
2023/06/22 11:37:36;;;;;;;1.17;1.07;;;;;;;;;;5065408;28;20447;-86
2023/06/22 11:40:09;;;;;;;0.80;0.80;;;;;;;;;;5065250;28;20930;-79
2023/06/22 11:42:36;;;;;;;1.17;1.07;;;;;;;;;;5060601;28;20570;-79
2023/06/22 11:45:04;;;;;;;0.80;0.80;;;;;;;;;;5068696;28;20458;-79
2023/06/22 11:47:34;;;;;;;1.40;0.87;;;;;;;;;;5060382;28;20462;-80
2023/06/22 11:50:02;;;;;;;0.80;0.80;;;;;;;;;;5061104;28;20472;-81
2023/06/22 11:52:31;;;;;;;0.77;0.70;;;;;;;;;;5064465;28;20543;-80
2023/06/22 11:54:59;;;;;;;1.53;1.43;;;;;;;;;;5061026;28;20563;-80
2023/06/22 11:57:29;;;;;;;1.03;1.03;;;;;;;;;;5067704;28;20429;-80
2023/06/22 11:59:57;;;;;;;1.37;1.27;;;;;;;;;;5062124;28;20889;-80
2023/06/22 12:02:24;;;;;;;0.70;0.70;;;;;;;;;;5047449;28;20457;-81
2023/06/22 12:04:54;;;;;;;1.20;1.10;;;;;;;;;;5059390;28;20445;-78
2023/06/22 12:07:22;;;;;;;1.93;1.77;;;;;;;;;;5068421;28;20450;-80
2023/06/22 12:09:50;;;;;;;1.10;1.00;;;;;;;;;;5041203;28;20444;-79
2023/06/22 12:12:19;;;;;;;5.07;1.93;;;;;;;;;;5055154;28;20439;-80
2023/06/22 12:14:46;;;;;;;0.80;0.80;;;;;;;;;;5058798;28;20443;-79
2023/06/22 12:17:13;;;;;;;0.70;0.70;;;;;;;;;;5067985;28;20538;-80
2023/06/22 12:19:40;;;;;;;0.70;0.70;;;;;;;;;;5059462;28;20439;-80
2023/06/22 12:22:06;;;;;;;0.70;0.60;;;;;;;;;;5065565;28;20455;-80
2023/06/22 12:24:37;;;;;;;1.63;1.53;;;;;;;;;;5047561;28;20451;-78
2023/06/22 12:27:04;;;;;;;1.30;1.20;;;;;;;;;;5055392;28;20432;-79
2023/06/22 12:29:31;;;;;;;1.37;1.27;;;;;;;;;;5059463;28;20448;-80
2023/06/22 12:31:58;;;;;;;3.03;2.07;;;;;;;;;;5061292;28;20946;-81
2023/06/22 12:34:25;;;;;;;1.53;1.43;;;;;;;;;;5049266;28;20525;-81
2023/06/22 12:36:54;;;;;;;1.00;0.90;;;;;;;;;;5067862;28;20530;-81
2023/06/22 12:39:22;;;;;;;1.90;1.80;;;;;;;;;;5076888;28;20447;-82
2023/06/22 12:41:53;;;;;;;2.33;2.23;;;;;;;;;;5069698;28;20777;-81
2023/06/22 12:44:20;;;;;;;5.03;1.43;;;;;;;;;;5060055;28;20514;-83
2023/06/22 12:46:47;;;;;;;0.70;0.60;;;;;;;;;;5044989;28;20448;-80
2023/06/22 12:49:13;;;;;;;0.90;0.80;;;;;;;;;;5073845;28;20475;-80
2023/06/22 12:51:42;;;;;;;0.70;0.60;;;;;;;;;;5064557;28;20946;-78
2023/06/22 12:54:09;;;;;;;0.80;0.80;;;;;;;;;;5059791;28;20431;-77
2023/06/22 12:56:38;;;;;;;0.70;0.60;;;;;;;;;;5057675;28;20465;-78
2023/06/22 12:59:06;;;;;;;0.70;0.60;;;;;;;;;;5049771;28;20808;-78
2023/06/22 13:01:33;;;;;;;0.80;0.70;;;;;;;;;;5067756;28;20542;-76
2023/06/22 13:04:00;;;;;;;0.80;0.80;;;;;;;;;;5065697;28;20468;-76
2023/06/22 13:06:27;;;;;;;1.30;1.20;;;;;;;;;;5063917;28;20447;-76
2023/06/22 13:08:55;;;;;;;1.00;0.70;;;;;;;;;;5054539;28;20508;-78
2023/06/22 13:11:25;;;;;;;1.37;1.27;;;;;;;;;;5069632;28;20988;-74
2023/06/22 13:13:53;;;;;;;1.60;1.00;;;;;;;;;;5049719;28;20458;-76
2023/06/22 13:16:20;;;;;;;0.90;0.90;;;;;;;;;;5066350;28;20478;-78
2023/06/22 13:18:48;;;;;;;0.93;0.90;;;;;;;;;;5056200;28;20517;-77
2023/06/22 13:21:15;;;;;;;2.10;1.03;;;;;;;;;;5065378;28;20919;-78
2023/06/22 13:23:43;;;;;;;1.20;1.10;;;;;;;;;;5064875;28;20905;-76
2023/06/22 13:26:09;;;;;;;0.70;0.60;;;;;;;;;;5045171;28;20442;-76
2023/06/22 13:28:36;;;;;;;1.23;0.90;;;;;;;;;;5060847;28;20538;-78
2023/06/22 13:31:05;;;;;;;1.00;0.90;;;;;;;;;;5064252;28;20551;-78
2023/06/22 13:33:34;;;;;;;1.33;1.17;;;;;;;;;;5065766;28;20432;-80
2023/06/22 13:36:00;;;;;;;3.07;2.87;;;;;;;;;;5069434;28;20439;-78
2023/06/22 13:38:27;;;;;;;1.77;1.23;;;;;;;;;;5051107;28;20472;-78
2023/06/22 13:40:55;;;;;;;1.30;0.77;;;;;;;;;;5063436;28;20442;-78
2023/06/22 13:43:22;;;;;;;0.87;0.77;;;;;;;;;;5064522;28;20561;-80
2023/06/22 13:45:49;;;;;;;1.17;0.97;;;;;;;;;;5068204;28;20959;-78
2023/06/22 13:48:16;;;;;;;1.20;1.10;;;;;;;;;;5052434;28;20447;-79
2023/06/22 13:50:44;;;;;;;1.20;0.80;;;;;;;;;;5062157;28;20451;-79
2023/06/22 13:53:12;;;;;;;0.80;0.70;;;;;;;;;;5063511;28;20448;-80
2023/06/22 13:55:39;;;;;;;0.90;0.70;;;;;;;;;;5068805;28;20475;-79
2023/06/22 13:58:06;;;;;;;0.70;0.60;;;;;;;;;;5066554;28;20448;-78
2023/06/22 14:00:33;;;;;;;1.23;0.83;;;;;;;;;;5064115;28;20539;-80
2023/06/22 14:03:00;;;;;;;0.70;0.60;;;;;;;;;;5064198;28;20952;-82
2023/06/22 14:05:27;;;;;;;1.57;1.17;;;;;;;;;;5073009;28;20474;-81
2023/06/22 14:07:55;;;;;;;2.03;1.73;;;;;;;;;;5071415;28;20471;-81
2023/06/22 14:10:23;;;;;;;1.00;0.80;;;;;;;;;;5055280;28;20439;-81
2023/06/22 14:12:50;;;;;;;2.30;2.10;;;;;;;;;;5072180;28;20803;-80
2023/06/22 14:15:18;;;;;;;1.13;1.07;;;;;;;;;;5048962;28;20981;-75
2023/06/22 14:17:45;;;;;;;0.70;0.50;;;;;;;;;;5063480;28;20526;-77
2023/06/22 14:20:12;;;;;;;0.70;0.67;;;;;;;;;;5059318;28;20443;-75
2023/06/22 14:22:39;;;;;;;0.80;0.70;;;;;;;;;;5065099;28;20489;-75
2023/06/22 14:25:08;;;;;;;0.83;0.77;;;;;;;;;;5065191;28;20466;-75
2023/06/22 14:27:35;;;;;;;0.80;0.70;;;;;;;;;;5059866;28;20436;-76
2023/06/22 14:30:03;;;;;;;1.20;1.10;;;;;;;;;;5045239;28;20806;-78
2023/06/22 14:32:32;;;;;;;1.10;1.00;;;;;;;;;;5051864;28;20523;-75
2023/06/22 14:35:00;;;;;;;0.70;0.60;;;;;;;;;;5057112;28;20920;-77
2023/06/22 14:37:28;;;;;;;0.97;0.87;;;;;;;;;;5068372;28;20459;-81
2023/06/22 14:39:54;;;;;;;1.03;0.90;;;;;;;;;;5065576;28;20492;-80
2023/06/22 14:42:22;;;;;;;0.80;0.70;;;;;;;;;;5067572;28;20443;-80
2023/06/22 14:44:49;;;;;;;0.70;0.60;;;;;;;;;;5059276;28;20499;-80
2023/06/22 14:47:18;;;;;;;0.87;0.83;;;;;;;;;;5063225;28;20487;-80